createdAt,value
2022-08-04T00:00:41.068Z,0.00
2022-08-04T00:01:41.196Z,0.00
2022-08-04T00:02:44.008Z,0.00
2022-08-04T00:03:44.009Z,0.00
2022-08-04T00:04:40.977Z,0.00
2022-08-04T00:05:40.969Z,0.00
2022-08-04T00:06:40.991Z,0.00
2022-08-04T00:07:44.284Z,0.00
2022-08-04T00:08:40.929Z,0.00
2022-08-04T00:09:40.923Z,0.00
2022-08-04T00:10:40.902Z,0.00
2022-08-04T00:11:40.909Z,0.00
2022-08-04T00:12:40.864Z,0.00
2022-08-04T00:13:59.874Z,0.00
2022-08-04T00:14:41.853Z,0.00
2022-08-04T00:15:40.824Z,0.00
2022-08-04T00:16:40.843Z,0.00
2022-08-04T00:17:40.803Z,0.00
2022-08-04T00:18:40.787Z,0.00
2022-08-04T00:19:40.778Z,0.00
2022-08-04T00:20:40.782Z,0.00
2022-08-04T00:21:40.771Z,0.00
2022-08-04T00:22:43.738Z,0.00
2022-08-04T00:24:12.182Z,0.00
2022-08-04T00:24:41.710Z,0.00
2022-08-04T00:25:40.693Z,0.00
2022-08-04T00:26:40.679Z,0.00
2022-08-04T00:27:40.739Z,0.00
2022-08-04T00:28:40.652Z,0.00
2022-08-04T00:29:40.663Z,0.00
2022-08-04T00:30:40.640Z,0.00
2022-08-04T00:31:54.677Z,0.00
2022-08-04T00:32:41.613Z,0.00
2022-08-04T00:33:40.609Z,0.00
2022-08-04T00:34:40.598Z,0.00
2022-08-04T00:35:40.567Z,0.00
2022-08-04T00:36:40.557Z,0.00
2022-08-04T00:37:40.526Z,0.00
2022-08-04T00:38:40.538Z,0.00
2022-08-04T00:39:40.632Z,0.00
2022-08-04T00:40:40.495Z,0.00
2022-08-04T00:41:56.125Z,0.00
2022-08-04T00:42:58.518Z,0.00
2022-08-04T00:43:44.474Z,0.00
2022-08-04T00:44:40.480Z,0.00
2022-08-04T00:46:16.130Z,0.00
2022-08-04T00:46:41.409Z,0.00
2022-08-04T00:47:40.429Z,0.00
2022-08-04T00:48:40.400Z,0.00
2022-08-04T00:49:40.381Z,0.00
2022-08-04T00:50:40.389Z,0.00
2022-08-04T00:51:40.343Z,0.00
2022-08-04T00:52:40.331Z,0.00
2022-08-04T00:53:40.322Z,0.00
2022-08-04T00:54:41.313Z,0.00
2022-08-04T00:55:40.351Z,0.00
2022-08-04T00:56:40.274Z,0.00
2022-08-04T00:57:40.274Z,0.00
2022-08-04T00:58:40.254Z,0.00
2022-08-04T00:59:40.243Z,0.00
2022-08-04T01:00:40.227Z,0.00
2022-08-04T01:01:40.275Z,0.00
2022-08-04T01:02:43.206Z,0.00
2022-08-04T01:03:43.197Z,0.00
2022-08-04T01:04:40.157Z,0.00
2022-08-04T01:05:40.160Z,0.00
2022-08-04T01:06:40.139Z,0.00
2022-08-04T01:07:40.157Z,0.00
2022-08-04T01:08:40.120Z,0.00
2022-08-04T01:09:40.103Z,0.00
2022-08-04T01:10:40.094Z,0.00
2022-08-04T01:11:57.327Z,0.00
2022-08-04T01:12:41.111Z,0.00
2022-08-04T01:13:40.043Z,0.00
2022-08-04T01:14:40.055Z,0.00
2022-08-04T01:15:59.678Z,0.00
2022-08-04T01:16:41.006Z,0.00
2022-08-04T01:17:39.997Z,0.00
2022-08-04T01:18:39.996Z,0.00
2022-08-04T01:19:39.996Z,0.00
2022-08-04T01:20:39.950Z,0.00
2022-08-04T01:21:39.959Z,0.00
2022-08-04T01:22:42.928Z,0.00
2022-08-04T01:23:42.920Z,0.00
2022-08-04T01:24:39.900Z,0.00
2022-08-04T01:25:39.899Z,0.00
2022-08-04T01:26:44.086Z,0.00
2022-08-04T01:27:40.974Z,0.00
2022-08-04T01:28:42.875Z,0.00
2022-08-04T01:29:46.703Z,0.00
2022-08-04T01:30:40.821Z,0.00
2022-08-04T01:31:39.802Z,0.00
2022-08-04T01:32:39.802Z,0.00
2022-08-04T01:34:03.370Z,0.00
2022-08-04T01:34:40.813Z,0.00
2022-08-04T01:35:46.764Z,0.00
2022-08-04T01:36:40.816Z,0.00
2022-08-04T01:37:39.741Z,0.00
2022-08-04T01:38:39.735Z,0.00
2022-08-04T01:39:39.693Z,0.00
2022-08-04T01:40:39.721Z,0.00
2022-08-04T01:41:39.668Z,0.00
2022-08-04T01:42:43.657Z,0.00
2022-08-04T01:43:42.657Z,0.00
2022-08-04T01:44:39.647Z,0.00
2022-08-04T01:45:39.653Z,0.00
2022-08-04T01:46:39.631Z,0.00
2022-08-04T01:47:39.597Z,0.00
2022-08-04T01:48:39.581Z,0.00
2022-08-04T01:49:40.039Z,0.00
2022-08-04T01:50:39.581Z,0.00
2022-08-04T01:51:39.529Z,0.00
2022-08-04T01:52:39.509Z,0.00
2022-08-04T01:53:39.516Z,0.00
2022-08-04T01:54:39.512Z,0.00
2022-08-04T01:55:55.199Z,0.00
2022-08-04T01:56:40.492Z,0.00
2022-08-04T01:57:39.608Z,0.00
2022-08-04T01:58:39.457Z,0.00
2022-08-04T01:59:39.429Z,0.00
2022-08-04T02:00:39.425Z,0.00
2022-08-04T02:01:39.480Z,0.00
2022-08-04T02:02:42.481Z,0.00
2022-08-04T02:04:18.337Z,0.00
2022-08-04T02:04:40.362Z,0.00
2022-08-04T02:06:03.709Z,0.00
2022-08-04T02:06:40.331Z,0.00
2022-08-04T02:07:39.386Z,0.00
2022-08-04T02:08:39.302Z,0.00
2022-08-04T02:09:54.584Z,0.00
2022-08-04T02:10:40.280Z,0.00
2022-08-04T02:11:39.262Z,0.00
2022-08-04T02:12:39.261Z,0.00
2022-08-04T02:13:39.282Z,0.00
2022-08-04T02:14:39.231Z,0.00
2022-08-04T02:15:39.463Z,0.00
2022-08-04T02:16:39.207Z,0.00
2022-08-04T02:17:39.193Z,0.00
2022-08-04T02:18:39.214Z,0.00
2022-08-04T02:19:39.178Z,0.00
2022-08-04T02:20:39.156Z,0.00
2022-08-04T02:21:42.554Z,0.00
2022-08-04T02:22:42.117Z,0.00
2022-08-04T02:23:42.178Z,0.00
2022-08-04T02:24:39.114Z,0.00
2022-08-04T02:25:39.080Z,0.00
2022-08-04T02:26:39.070Z,0.00
2022-08-04T02:27:59.622Z,0.00
2022-08-04T02:28:40.034Z,0.00
2022-08-04T02:29:39.048Z,0.00
2022-08-04T02:30:39.029Z,0.00
2022-08-04T02:31:39.001Z,0.00
2022-08-04T02:32:38.981Z,0.00
2022-08-04T02:33:38.973Z,0.00
2022-08-04T02:34:38.991Z,0.00
2022-08-04T02:35:38.946Z,0.00
2022-08-04T02:36:38.932Z,0.00
2022-08-04T02:37:38.917Z,0.00
2022-08-04T02:38:38.915Z,0.00
2022-08-04T02:39:48.009Z,0.00
2022-08-04T02:40:39.886Z,0.00
2022-08-04T02:41:38.885Z,0.00
2022-08-04T02:42:41.846Z,0.00
2022-08-04T02:43:52.015Z,0.00
2022-08-04T02:44:39.847Z,0.00
2022-08-04T02:45:38.805Z,0.00
2022-08-04T02:46:38.819Z,0.00
2022-08-04T02:48:25.230Z,0.00
2022-08-04T02:48:39.770Z,0.00
2022-08-04T02:49:38.759Z,0.00
2022-08-04T02:50:38.730Z,0.00
2022-08-04T02:51:38.723Z,0.00
2022-08-04T02:52:38.781Z,0.00
2022-08-04T02:53:38.697Z,0.00
2022-08-04T02:54:38.699Z,0.00
2022-08-04T02:55:38.693Z,0.00
2022-08-04T02:56:38.985Z,0.00
2022-08-04T02:57:38.654Z,0.00
2022-08-04T02:58:38.695Z,0.00
2022-08-04T02:59:38.624Z,0.00
2022-08-04T03:00:38.730Z,0.00
2022-08-04T03:01:56.425Z,0.00
2022-08-04T03:02:42.595Z,0.00
2022-08-04T03:03:41.636Z,0.00
2022-08-04T03:04:38.566Z,0.00
2022-08-04T03:05:57.642Z,0.00
2022-08-04T03:06:39.516Z,0.00
2022-08-04T03:07:38.534Z,0.00
2022-08-04T03:08:38.498Z,0.00
2022-08-04T03:09:38.528Z,0.00
2022-08-04T03:10:38.538Z,0.00
2022-08-04T03:11:38.479Z,0.00
2022-08-04T03:12:38.461Z,0.00
2022-08-04T03:13:38.429Z,0.00
2022-08-04T03:14:38.422Z,0.00
2022-08-04T03:15:38.401Z,0.00
2022-08-04T03:16:38.955Z,0.00
2022-08-04T03:17:38.381Z,0.00
2022-08-04T03:18:39.382Z,0.00
2022-08-04T03:19:38.382Z,0.00
2022-08-04T03:20:38.352Z,0.00
2022-08-04T03:21:38.322Z,0.00
2022-08-04T03:22:59.771Z,0.00
2022-08-04T03:23:42.329Z,0.00
2022-08-04T03:24:38.306Z,0.00
2022-08-04T03:25:54.492Z,0.00
2022-08-04T03:26:39.256Z,0.00
2022-08-04T03:27:38.245Z,0.00
2022-08-04T03:28:38.289Z,0.00
2022-08-04T03:29:38.239Z,0.00
2022-08-04T03:30:38.215Z,0.00
2022-08-04T03:31:38.194Z,5.62
2022-08-04T03:32:38.191Z,5.62
2022-08-04T03:33:38.159Z,5.62
2022-08-04T03:34:38.239Z,5.62
2022-08-04T03:35:38.149Z,5.62
2022-08-04T03:36:38.125Z,5.62
2022-08-04T03:37:38.115Z,5.62
2022-08-04T03:38:38.101Z,5.62
2022-08-04T03:39:38.112Z,5.62
2022-08-04T03:40:38.132Z,5.62
2022-08-04T03:41:51.325Z,11.25
2022-08-04T03:42:42.033Z,11.25
2022-08-04T03:43:56.973Z,11.25
2022-08-04T03:44:39.034Z,11.25
2022-08-04T03:45:38.015Z,11.25
2022-08-04T03:46:38.063Z,11.25
2022-08-04T03:47:45.498Z,16.88
2022-08-04T03:48:37.954Z,16.88
2022-08-04T03:49:37.954Z,16.88
2022-08-04T03:50:41.328Z,16.88
2022-08-04T03:51:37.919Z,22.50
2022-08-04T03:52:37.965Z,22.50
2022-08-04T03:53:37.897Z,22.50
2022-08-04T03:54:37.869Z,22.50
2022-08-04T03:55:37.869Z,22.50
2022-08-04T03:56:37.847Z,28.12
2022-08-04T03:57:37.836Z,28.12
2022-08-04T03:58:37.861Z,28.12
2022-08-04T03:59:37.820Z,28.12
2022-08-04T04:00:37.790Z,33.75
2022-08-04T04:01:41.604Z,33.75
2022-08-04T04:02:41.792Z,39.38
2022-08-04T04:03:40.820Z,39.38
2022-08-04T04:04:37.732Z,45.00
2022-08-04T04:05:58.858Z,45.00
2022-08-04T04:06:38.716Z,50.62
2022-08-04T04:07:37.705Z,50.62
2022-08-04T04:08:37.685Z,50.62
2022-08-04T04:09:52.318Z,56.25
2022-08-04T04:10:38.657Z,56.25
2022-08-04T04:11:54.525Z,61.88
2022-08-04T04:12:38.625Z,61.88
2022-08-04T04:13:37.617Z,67.50
2022-08-04T04:14:37.597Z,67.50
2022-08-04T04:15:37.656Z,67.50
2022-08-04T04:16:37.578Z,73.12
2022-08-04T04:17:37.557Z,73.12
2022-08-04T04:18:37.547Z,73.12
2022-08-04T04:19:37.538Z,73.12
2022-08-04T04:20:37.521Z,78.75
2022-08-04T04:21:37.550Z,78.75
2022-08-04T04:22:40.551Z,84.38
2022-08-04T04:23:40.500Z,84.38
2022-08-04T04:24:37.459Z,84.38
2022-08-04T04:25:37.453Z,90.00
2022-08-04T04:26:37.441Z,90.00
2022-08-04T04:27:37.432Z,90.00
2022-08-04T04:28:45.835Z,95.62
2022-08-04T04:29:38.422Z,95.62
2022-08-04T04:30:37.397Z,106.88
2022-08-04T04:31:37.391Z,174.38
2022-08-04T04:32:37.363Z,303.75
2022-08-04T04:33:37.352Z,416.25
2022-08-04T04:34:37.364Z,444.38
2022-08-04T04:35:37.315Z,382.50
2022-08-04T04:36:37.309Z,326.25
2022-08-04T04:37:37.302Z,320.62
2022-08-04T04:38:38.294Z,320.62
2022-08-04T04:39:37.367Z,315.00
2022-08-04T04:40:37.248Z,309.38
2022-08-04T04:41:37.255Z,315.00
2022-08-04T04:42:40.227Z,354.38
2022-08-04T04:43:51.043Z,320.62
2022-08-04T04:44:38.248Z,303.75
2022-08-04T04:45:37.199Z,298.12
2022-08-04T04:46:37.171Z,343.12
2022-08-04T04:48:01.658Z,348.75
2022-08-04T04:48:38.149Z,360.00
2022-08-04T04:49:37.140Z,371.25
2022-08-04T04:50:37.163Z,371.25
2022-08-04T04:51:37.113Z,376.88
2022-08-04T04:52:37.084Z,371.25
2022-08-04T04:53:37.083Z,331.88
2022-08-04T04:54:37.067Z,348.75
2022-08-04T04:55:37.045Z,337.50
2022-08-04T04:56:37.205Z,236.25
2022-08-04T04:57:53.267Z,258.75
2022-08-04T04:58:38.018Z,208.12
2022-08-04T04:59:37.010Z,236.25
2022-08-04T05:00:36.989Z,371.25
2022-08-04T05:01:36.970Z,405.00
2022-08-04T05:02:40.116Z,405.00
2022-08-04T05:03:39.963Z,405.00
2022-08-04T05:04:36.921Z,399.38
2022-08-04T05:05:36.929Z,393.75
2022-08-04T05:06:36.907Z,399.38
2022-08-04T05:07:36.889Z,315.00
2022-08-04T05:08:43.092Z,286.88
2022-08-04T05:09:37.869Z,258.75
2022-08-04T05:10:36.864Z,303.75
2022-08-04T05:11:36.834Z,331.88
2022-08-04T05:12:53.858Z,331.88
2022-08-04T05:14:37.447Z,343.12
2022-08-04T05:14:41.605Z,376.88
2022-08-04T05:15:36.783Z,337.50
2022-08-04T05:16:36.775Z,360.00
2022-08-04T05:17:36.756Z,331.88
2022-08-04T05:18:36.747Z,309.38
2022-08-04T05:19:36.758Z,298.12
2022-08-04T05:20:36.721Z,208.12
2022-08-04T05:21:36.710Z,185.62
2022-08-04T05:22:39.691Z,225.00
2022-08-04T05:23:39.719Z,168.75
2022-08-04T05:24:36.671Z,163.12
2022-08-04T05:25:36.672Z,163.12
2022-08-04T05:26:36.642Z,185.62
2022-08-04T05:27:39.854Z,213.75
2022-08-04T05:28:36.639Z,219.38
2022-08-04T05:29:36.599Z,253.12
2022-08-04T05:30:36.613Z,286.88
2022-08-04T05:31:36.574Z,292.50
2022-08-04T05:32:36.553Z,258.75
2022-08-04T05:33:36.554Z,236.25
2022-08-04T05:34:36.575Z,202.50
2022-08-04T05:35:55.806Z,174.38
2022-08-04T05:36:41.364Z,185.62
2022-08-04T05:37:36.507Z,247.50
2022-08-04T05:38:36.487Z,225.00
2022-08-04T05:39:36.488Z,241.88
2022-08-04T05:40:36.478Z,264.38
2022-08-04T05:41:45.355Z,281.25
2022-08-04T05:42:40.439Z,191.25
2022-08-04T05:43:39.436Z,225.00
2022-08-04T05:44:36.442Z,315.00
2022-08-04T05:45:39.055Z,348.75
2022-08-04T05:46:36.372Z,348.75
2022-08-04T05:47:36.363Z,365.62
2022-08-04T05:48:36.349Z,337.50
2022-08-04T05:49:36.336Z,281.25
2022-08-04T05:50:36.324Z,230.62
2022-08-04T05:51:36.355Z,371.25
2022-08-04T05:52:36.295Z,360.00
2022-08-04T05:53:36.286Z,348.75
2022-08-04T05:54:36.265Z,371.25
2022-08-04T05:55:57.488Z,258.75
2022-08-04T05:56:37.275Z,343.12
2022-08-04T05:57:36.248Z,236.25
2022-08-04T05:58:36.217Z,410.62
2022-08-04T05:59:36.237Z,376.88
2022-08-04T06:00:41.270Z,258.75
2022-08-04T06:01:55.986Z,371.25
2022-08-04T06:02:40.219Z,343.12
2022-08-04T06:03:39.170Z,258.75
2022-08-04T06:04:36.163Z,393.75
2022-08-04T06:05:36.131Z,331.88
2022-08-04T06:06:36.112Z,337.50
2022-08-04T06:07:36.120Z,360.00
2022-08-04T06:08:37.111Z,371.25
2022-08-04T06:09:37.544Z,405.00
2022-08-04T06:10:36.096Z,354.38
2022-08-04T06:12:01.937Z,247.50
2022-08-04T06:12:37.079Z,213.75
2022-08-04T06:13:47.790Z,213.75
2022-08-04T06:14:37.766Z,213.75
2022-08-04T06:15:36.038Z,388.12
2022-08-04T06:16:36.975Z,320.62
2022-08-04T06:19:56.327Z,208.12
2022-08-04T06:20:00.115Z,202.50
2022-08-04T06:20:00.896Z,196.88
2022-08-04T06:20:37.374Z,185.62
2022-08-04T06:21:35.921Z,174.38
2022-08-04T06:22:38.903Z,168.75
2022-08-04T06:23:56.124Z,168.75
2022-08-04T06:24:37.631Z,168.75
2022-08-04T06:25:35.943Z,168.75
2022-08-04T06:26:35.868Z,219.38
2022-08-04T06:27:35.841Z,185.62
2022-08-04T06:28:35.831Z,292.50
2022-08-04T06:29:36.588Z,241.88
2022-08-04T06:30:35.797Z,151.88
2022-08-04T06:32:28.672Z,151.88
2022-08-04T06:32:41.663Z,151.88
2022-08-04T06:33:55.061Z,151.88
2022-08-04T06:34:38.221Z,151.88
2022-08-04T06:35:35.739Z,146.25
2022-08-04T06:36:35.740Z,208.12
2022-08-04T06:37:43.653Z,180.00
2022-08-04T06:38:36.689Z,202.50
2022-08-04T06:39:37.625Z,196.88
2022-08-04T06:40:35.777Z,213.75
2022-08-04T06:41:35.662Z,185.62
2022-08-04T06:42:39.692Z,213.75
2022-08-04T06:43:42.899Z,163.12
2022-08-04T06:44:37.374Z,174.38
2022-08-04T06:45:35.615Z,180.00
2022-08-04T06:46:35.585Z,208.12
2022-08-04T06:47:35.576Z,219.38
2022-08-04T06:48:35.582Z,208.12
2022-08-04T06:49:55.142Z,208.12
2022-08-04T06:51:24.436Z,208.12
2022-08-04T06:51:43.712Z,180.00
2022-08-04T06:52:36.507Z,174.38
2022-08-04T06:53:35.498Z,180.00
2022-08-04T06:54:36.455Z,185.62
2022-08-04T06:55:35.528Z,191.25
2022-08-04T06:56:35.459Z,191.25
2022-08-04T06:57:35.454Z,196.88
2022-08-04T06:58:35.431Z,225.00
2022-08-04T06:59:36.174Z,202.50
2022-08-04T07:00:35.402Z,202.50
2022-08-04T07:01:35.520Z,225.00
2022-08-04T07:02:38.376Z,196.88
2022-08-04T07:03:38.382Z,196.88
2022-08-04T07:04:36.113Z,208.12
2022-08-04T07:05:35.324Z,191.25
2022-08-04T07:06:35.389Z,196.88
2022-08-04T07:07:37.091Z,196.88
2022-08-04T07:08:36.298Z,219.38
2022-08-04T07:09:37.247Z,225.00
2022-08-04T07:10:35.274Z,225.00
2022-08-04T07:11:44.313Z,230.62
2022-08-04T07:12:36.277Z,236.25
2022-08-04T07:13:35.241Z,236.25
2022-08-04T07:14:35.249Z,236.25
2022-08-04T07:15:35.200Z,236.25
2022-08-04T07:16:35.263Z,236.25
2022-08-04T07:17:35.181Z,241.88
2022-08-04T07:18:35.161Z,258.75
2022-08-04T07:19:35.151Z,253.12
2022-08-04T07:20:36.814Z,247.50
2022-08-04T07:21:35.122Z,253.12
2022-08-04T07:22:38.144Z,258.75
2022-08-04T07:23:38.116Z,270.00
2022-08-04T07:24:35.102Z,281.25
2022-08-04T07:25:59.954Z,286.88
2022-08-04T07:26:36.065Z,281.25
2022-08-04T07:27:48.247Z,275.62
2022-08-04T07:28:36.037Z,264.38
2022-08-04T07:29:35.024Z,264.38
2022-08-04T07:30:35.008Z,258.75
2022-08-04T07:31:36.260Z,264.38
2022-08-04T07:32:34.979Z,281.25
2022-08-04T07:33:35.030Z,281.25
2022-08-04T07:34:34.961Z,253.12
2022-08-04T07:36:05.694Z,253.12
2022-08-04T07:36:50.047Z,247.50
2022-08-04T07:37:39.349Z,241.88
2022-08-04T07:38:37.652Z,241.88
2022-08-04T07:39:48.377Z,241.88
2022-08-04T07:40:35.891Z,241.88
2022-08-04T07:41:35.761Z,236.25
2022-08-04T07:42:37.888Z,236.25
2022-08-04T07:43:37.855Z,225.00
2022-08-04T07:44:34.816Z,230.62
2022-08-04T07:45:34.886Z,247.50
2022-08-04T07:46:34.806Z,241.88
2022-08-04T07:47:34.818Z,247.50
2022-08-04T07:48:34.787Z,253.12
2022-08-04T07:49:56.043Z,253.12
2022-08-04T07:50:35.740Z,258.75
2022-08-04T07:51:34.739Z,247.50
2022-08-04T07:52:39.667Z,236.25
2022-08-04T07:53:54.008Z,241.88
2022-08-04T07:54:35.839Z,241.88
2022-08-04T07:55:34.671Z,247.50
2022-08-04T07:56:34.694Z,253.12
2022-08-04T07:57:41.210Z,253.12
2022-08-04T07:58:35.642Z,253.12
2022-08-04T07:59:34.632Z,258.75
2022-08-04T08:00:34.644Z,258.75
2022-08-04T08:01:34.624Z,258.75
2022-08-04T08:02:37.591Z,253.12
2022-08-04T08:03:37.633Z,247.50
2022-08-04T08:04:34.566Z,247.50
2022-08-04T08:05:34.557Z,247.50
2022-08-04T08:06:39.837Z,247.50
2022-08-04T08:07:35.525Z,241.88
2022-08-04T08:08:34.519Z,253.12
2022-08-04T08:09:34.542Z,264.38
2022-08-04T08:10:34.489Z,270.00
2022-08-04T08:12:35.299Z,264.38
2022-08-04T08:12:51.250Z,275.62
2022-08-04T08:13:35.439Z,286.88
2022-08-04T08:14:34.431Z,281.25
2022-08-04T08:15:34.443Z,286.88
2022-08-04T08:16:34.403Z,292.50
2022-08-04T08:17:58.812Z,292.50
2022-08-04T08:18:35.393Z,286.88
2022-08-04T08:19:34.364Z,275.62
2022-08-04T08:20:34.354Z,281.25
2022-08-04T08:21:34.402Z,281.25
2022-08-04T08:22:38.350Z,281.25
2022-08-04T08:23:37.337Z,270.00
2022-08-04T08:24:34.315Z,275.62
2022-08-04T08:25:34.306Z,270.00
2022-08-04T08:26:34.277Z,281.25
2022-08-04T08:27:34.315Z,275.62
2022-08-04T08:28:34.255Z,264.38
2022-08-04T08:29:34.230Z,270.00
2022-08-04T08:30:34.230Z,275.62
2022-08-04T08:31:57.138Z,281.25
2022-08-04T08:32:35.251Z,292.50
2022-08-04T08:33:34.192Z,292.50
2022-08-04T08:34:34.183Z,298.12
2022-08-04T08:35:34.163Z,309.38
2022-08-04T08:36:35.155Z,309.38
2022-08-04T08:37:34.145Z,315.00
2022-08-04T08:38:34.207Z,320.62
2022-08-04T08:39:34.189Z,320.62
2022-08-04T08:40:40.462Z,309.38
2022-08-04T08:41:35.096Z,309.38
2022-08-04T08:42:37.079Z,298.12
2022-08-04T08:44:06.228Z,298.12
2022-08-04T08:44:37.766Z,298.12
2022-08-04T08:45:34.048Z,292.50
2022-08-04T08:46:49.051Z,298.12
2022-08-04T08:48:04.857Z,298.12
2022-08-04T08:48:35.041Z,303.75
2022-08-04T08:50:03.180Z,309.38
2022-08-04T08:50:34.972Z,309.38
2022-08-04T08:51:33.963Z,303.75
2022-08-04T08:52:56.397Z,298.12
2022-08-04T08:53:34.933Z,298.12
2022-08-04T08:54:33.955Z,270.00
2022-08-04T08:55:33.915Z,264.38
2022-08-04T08:56:33.914Z,264.38
2022-08-04T08:57:33.915Z,253.12
2022-08-04T08:58:33.876Z,264.38
2022-08-04T08:59:33.899Z,264.38
2022-08-04T09:00:33.847Z,264.38
2022-08-04T09:01:33.873Z,286.88
2022-08-04T09:02:36.818Z,281.25
2022-08-04T09:03:36.820Z,292.50
2022-08-04T09:04:33.799Z,275.62
2022-08-04T09:05:33.812Z,286.88
2022-08-04T09:06:33.772Z,303.75
2022-08-04T09:07:33.750Z,309.38
2022-08-04T09:08:33.743Z,315.00
2022-08-04T09:09:33.725Z,320.62
2022-08-04T09:10:33.808Z,309.38
2022-08-04T09:11:33.704Z,292.50
2022-08-04T09:12:33.694Z,258.75
2022-08-04T09:13:33.713Z,270.00
2022-08-04T09:14:33.735Z,303.75
2022-08-04T09:15:33.707Z,309.38
2022-08-04T09:16:33.807Z,309.38
2022-08-04T09:17:33.618Z,309.38
2022-08-04T09:18:33.624Z,303.75
2022-08-04T09:19:38.080Z,315.00
2022-08-04T09:20:34.599Z,303.75
2022-08-04T09:21:33.579Z,258.75
2022-08-04T09:22:36.621Z,258.75
2022-08-04T09:23:36.600Z,286.88
2022-08-04T09:24:36.643Z,270.00
2022-08-04T09:25:33.527Z,236.25
2022-08-04T09:26:33.502Z,303.75
2022-08-04T09:27:33.491Z,286.88
2022-08-04T09:28:52.869Z,253.12
2022-08-04T09:29:34.475Z,270.00
2022-08-04T09:30:33.529Z,213.75
2022-08-04T09:31:49.086Z,270.00
2022-08-04T09:32:34.456Z,270.00
2022-08-04T09:33:45.366Z,264.38
2022-08-04T09:34:34.457Z,270.00
2022-08-04T09:35:33.454Z,270.00
2022-08-04T09:36:33.469Z,264.38
2022-08-04T09:37:33.358Z,270.00
2022-08-04T09:38:34.348Z,270.00
2022-08-04T09:39:33.452Z,270.00
2022-08-04T09:40:53.040Z,253.12
2022-08-04T09:41:48.062Z,258.75
2022-08-04T09:42:37.309Z,264.38
2022-08-04T09:43:59.174Z,264.38
2022-08-04T09:44:51.225Z,191.25
2022-08-04T09:45:42.477Z,264.38
2022-08-04T09:46:34.440Z,230.62
2022-08-04T09:47:39.648Z,230.62
2022-08-04T09:48:34.233Z,264.38
2022-08-04T09:49:33.264Z,236.25
2022-08-04T09:50:33.198Z,281.25
2022-08-04T09:51:58.207Z,281.25
2022-08-04T09:52:34.157Z,270.00
2022-08-04T09:53:33.219Z,281.25
2022-08-04T09:54:33.144Z,213.75
2022-08-04T09:55:33.198Z,213.75
2022-08-04T09:56:33.109Z,213.75
2022-08-04T09:57:33.101Z,219.38
2022-08-04T09:58:33.094Z,208.12
2022-08-04T09:59:33.082Z,202.50
2022-08-04T10:00:40.909Z,213.75
2022-08-04T10:01:34.172Z,213.75
2022-08-04T10:02:36.094Z,213.75
2022-08-04T10:03:36.135Z,225.00
2022-08-04T10:04:33.045Z,213.75
2022-08-04T10:05:32.996Z,196.88
2022-08-04T10:06:32.988Z,191.25
2022-08-04T10:07:33.118Z,196.88
2022-08-04T10:08:32.958Z,258.75
2022-08-04T10:09:32.928Z,264.38
2022-08-04T10:10:32.924Z,275.62
2022-08-04T10:11:32.911Z,281.25
2022-08-04T10:12:32.892Z,236.25
2022-08-04T10:13:32.922Z,247.50
2022-08-04T10:14:32.872Z,298.12
2022-08-04T10:15:32.872Z,298.12
2022-08-04T10:16:32.951Z,320.62
2022-08-04T10:17:32.856Z,286.88
2022-08-04T10:18:32.822Z,326.25
2022-08-04T10:19:32.801Z,315.00
2022-08-04T10:20:44.784Z,331.88
2022-08-04T10:21:33.836Z,331.88
2022-08-04T10:22:49.638Z,326.25
2022-08-04T10:23:56.567Z,320.62
2022-08-04T10:24:33.737Z,315.00
2022-08-04T10:26:03.372Z,320.62
2022-08-04T10:26:33.705Z,309.38
2022-08-04T10:27:32.719Z,292.50
2022-08-04T10:28:32.703Z,281.25
2022-08-04T10:29:32.670Z,281.25
2022-08-04T10:30:32.686Z,292.50
2022-08-04T10:31:32.727Z,286.88
2022-08-04T10:32:32.656Z,286.88
2022-08-04T10:33:32.658Z,275.62
2022-08-04T10:34:32.633Z,270.00
2022-08-04T10:35:32.608Z,286.88
2022-08-04T10:36:32.626Z,281.25
2022-08-04T10:38:00.285Z,281.25
2022-08-04T10:38:33.624Z,281.25
2022-08-04T10:39:42.126Z,286.88
2022-08-04T10:40:33.537Z,286.88
2022-08-04T10:41:32.517Z,286.88
2022-08-04T10:42:35.557Z,286.88
2022-08-04T10:43:35.590Z,281.25
2022-08-04T10:44:42.241Z,286.88
2022-08-04T10:45:33.494Z,286.88
2022-08-04T10:46:32.480Z,286.88
2022-08-04T10:47:32.493Z,281.25
2022-08-04T10:48:34.514Z,275.62
2022-08-04T10:49:32.469Z,275.62
2022-08-04T10:50:32.413Z,270.00
2022-08-04T10:51:57.182Z,270.00
2022-08-04T10:52:33.383Z,264.38
2022-08-04T10:53:32.386Z,264.38
2022-08-04T10:54:32.396Z,264.38
2022-08-04T10:56:06.552Z,264.38
2022-08-04T10:56:33.338Z,258.75
2022-08-04T10:57:32.408Z,253.12
2022-08-04T10:58:48.027Z,253.12
2022-08-04T10:59:33.377Z,253.12
2022-08-04T11:00:32.280Z,247.50
2022-08-04T11:02:01.438Z,236.25
2022-08-04T11:02:36.378Z,230.62
2022-08-04T11:03:35.325Z,236.25
2022-08-04T11:04:32.255Z,253.12
2022-08-04T11:05:32.229Z,247.50
2022-08-04T11:06:32.336Z,253.12
2022-08-04T11:07:32.351Z,253.12
2022-08-04T11:08:32.233Z,230.62
2022-08-04T11:09:32.205Z,236.25
2022-08-04T11:10:32.269Z,230.62
2022-08-04T11:11:32.146Z,247.50
2022-08-04T11:12:33.119Z,247.50
2022-08-04T11:13:32.108Z,258.75
2022-08-04T11:14:32.110Z,253.12
2022-08-04T11:15:32.094Z,241.88
2022-08-04T11:16:32.136Z,258.75
2022-08-04T11:17:32.227Z,253.12
2022-08-04T11:18:32.063Z,258.75
2022-08-04T11:19:42.699Z,258.75
2022-08-04T11:20:36.003Z,253.12
2022-08-04T11:21:32.005Z,264.38
2022-08-04T11:22:35.052Z,275.62
2022-08-04T11:23:35.024Z,270.00
2022-08-04T11:24:31.965Z,270.00
2022-08-04T11:25:31.966Z,264.38
2022-08-04T11:26:31.955Z,264.38
2022-08-04T11:27:31.947Z,241.88
2022-08-04T11:28:32.756Z,247.50
2022-08-04T11:29:31.931Z,247.50
2022-08-04T11:30:31.886Z,241.88
2022-08-04T11:31:31.912Z,236.25
2022-08-04T11:32:31.872Z,236.25
2022-08-04T11:33:31.900Z,253.12
2022-08-04T11:34:31.840Z,253.12
2022-08-04T11:35:31.822Z,253.12
2022-08-04T11:36:31.812Z,253.12
2022-08-04T11:37:31.825Z,253.12
2022-08-04T11:38:32.394Z,253.12
2022-08-04T11:39:33.045Z,264.38
2022-08-04T11:40:31.806Z,253.12
2022-08-04T11:41:31.803Z,225.00
2022-08-04T11:42:34.764Z,230.62
2022-08-04T11:44:00.761Z,247.50
2022-08-04T11:44:32.786Z,247.50
2022-08-04T11:45:31.779Z,247.50
2022-08-04T11:46:31.736Z,208.12
2022-08-04T11:47:31.828Z,208.12
2022-08-04T11:48:31.702Z,196.88
2022-08-04T11:49:31.730Z,196.88
2022-08-04T11:50:32.661Z,208.12
2022-08-04T11:51:31.636Z,230.62
2022-08-04T11:52:31.622Z,202.50
2022-08-04T11:53:36.362Z,196.88
2022-08-04T11:54:32.593Z,213.75
2022-08-04T11:55:31.575Z,253.12
2022-08-04T11:56:37.171Z,264.38
2022-08-04T11:57:36.192Z,241.88
2022-08-04T11:58:31.559Z,247.50
2022-08-04T11:59:31.538Z,253.12
2022-08-04T12:00:31.515Z,253.12
2022-08-04T12:01:31.556Z,253.12
2022-08-04T12:02:34.523Z,258.75
2022-08-04T12:03:37.824Z,258.75
2022-08-04T12:04:31.480Z,258.75
2022-08-04T12:05:35.590Z,258.75
2022-08-04T12:06:31.463Z,258.75
2022-08-04T12:07:32.191Z,241.88
2022-08-04T12:08:31.421Z,258.75
2022-08-04T12:09:31.433Z,264.38
2022-08-04T12:10:41.080Z,270.00
2022-08-04T12:11:32.419Z,219.38
2022-08-04T12:12:31.364Z,275.62
2022-08-04T12:13:31.366Z,270.00
2022-08-04T12:14:31.346Z,270.00
2022-08-04T12:15:31.330Z,275.62
2022-08-04T12:16:31.321Z,241.88
2022-08-04T12:17:52.030Z,225.00
2022-08-04T12:18:32.358Z,264.38
2022-08-04T12:19:38.864Z,253.12
2022-08-04T12:20:40.652Z,230.62
2022-08-04T12:21:32.264Z,247.50
2022-08-04T12:22:34.260Z,236.25
2022-08-04T12:23:34.269Z,253.12
2022-08-04T12:24:31.242Z,264.38
2022-08-04T12:25:31.194Z,258.75
2022-08-04T12:26:31.192Z,270.00
2022-08-04T12:27:31.176Z,236.25
2022-08-04T12:28:46.277Z,247.50
2022-08-04T12:29:32.193Z,258.75
2022-08-04T12:30:59.877Z,225.00
2022-08-04T12:31:32.128Z,230.62
2022-08-04T12:32:31.110Z,247.50
2022-08-04T12:34:02.685Z,270.00
2022-08-04T12:34:32.101Z,270.00
2022-08-04T12:35:31.098Z,258.75
2022-08-04T12:36:31.052Z,258.75
2022-08-04T12:37:31.050Z,258.75
2022-08-04T12:38:31.042Z,180.00
2022-08-04T12:39:31.081Z,247.50
2022-08-04T12:40:31.537Z,258.75
2022-08-04T12:41:31.003Z,236.25
2022-08-04T12:42:33.975Z,185.62
2022-08-04T12:43:33.984Z,185.62